Time;durP1;ratioP1;P1;durP2;ratioP2;P2;SDS_P1;SDS_P2;PMS_P1;PMS_P2;Temp;Humidity;BMP_temperature;BMP_pressure;BME280_temperature;BME280_humidity;BME280_pressure;Samples;Min_cycle;Max_cycle;Signal;HPM_P1;HPM_P2
2024/01/23 00:03:28;;;;;;;2.42;0.73;;;;;;;;;;10597852;27;20095;-79
2024/01/23 00:08:38;;;;;;;1.70;0.52;;;;;;;;;;10591963;27;20035;-78
2024/01/23 00:13:45;;;;;;;1.27;0.50;;;;;;;;;;10581995;27;20062;-78
2024/01/23 00:18:49;;;;;;;3.38;0.90;;;;;;;;;;10587796;27;20466;-79
2024/01/23 00:23:55;;;;;;;1.27;0.43;;;;;;;;;;10569795;27;20047;-79
2024/01/23 00:29:00;;;;;;;3.17;0.60;;;;;;;;;;10588196;27;20046;-79
2024/01/23 00:34:07;;;;;;;1.02;0.65;;;;;;;;;;10590232;27;20126;-79
2024/01/23 00:39:37;;;;;;;3.30;0.98;;;;;;;;;;10590515;27;20705;-81
2024/01/23 00:44:42;;;;;;;3.60;0.80;;;;;;;;;;10583510;27;20055;-81
2024/01/23 00:49:48;;;;;;;0.88;0.43;;;;;;;;;;10574574;27;20436;-80
2024/01/23 00:55:04;;;;;;;0.57;0.55;;;;;;;;;;10589317;27;20043;-80
2024/01/23 01:00:14;;;;;;;2.72;0.70;;;;;;;;;;10588888;27;20074;-80
2024/01/23 01:05:22;;;;;;;4.05;0.70;;;;;;;;;;10586734;27;20038;-80
2024/01/23 01:10:30;;;;;;;4.30;0.88;;;;;;;;;;10566106;27;20043;-79
2024/01/23 01:15:42;;;;;;;2.45;0.70;;;;;;;;;;10575431;27;20048;-78
2024/01/23 01:20:50;;;;;;;4.10;0.90;;;;;;;;;;10579547;27;20455;-80
2024/01/23 01:25:56;;;;;;;1.95;0.50;;;;;;;;;;10585658;27;20490;-80
2024/01/23 01:31:03;;;;;;;2.20;0.40;;;;;;;;;;10564621;27;20036;-79
2024/01/23 01:36:08;;;;;;;1.13;0.17;;;;;;;;;;10568782;27;20043;-79
2024/01/23 01:41:21;;;;;;;0.60;0.50;;;;;;;;;;10575704;27;20032;-80
2024/01/23 01:46:43;;;;;;;1.35;0.45;;;;;;;;;;10558169;27;20155;-80
2024/01/23 01:51:50;;;;;;;;;;;;;;;;;;10570911;27;20035;-79
2024/01/23 01:57:10;;;;;;;1.65;0.40;;;;;;;;;;10559262;27;19928;-79
2024/01/23 02:02:20;;;;;;;2.03;0.63;;;;;;;;;;10579067;27;20166;-79
2024/01/23 02:07:28;;;;;;;0.65;0.52;;;;;;;;;;10590475;27;20221;-79
2024/01/23 02:12:43;;;;;;;0.93;0.55;;;;;;;;;;10571251;27;20039;-79
2024/01/23 02:17:55;;;;;;;1.77;0.40;;;;;;;;;;10583304;27;20062;-81
2024/01/23 02:28:48;;;;;;;3.30;0.50;;;;;;;;;;10590149;27;20146;-79
2024/01/23 02:33:58;;;;;;;1.17;0.40;;;;;;;;;;10581469;27;20210;-79
2024/01/23 02:39:06;;;;;;;1.50;0.77;;;;;;;;;;10588001;27;20055;-79
2024/01/23 02:44:16;;;;;;;1.75;0.55;;;;;;;;;;10592294;27;20088;-78
2024/01/23 02:49:22;;;;;;;2.53;0.57;;;;;;;;;;10549151;27;20492;-79
2024/01/23 02:54:40;;;;;;;0.65;0.45;;;;;;;;;;10590705;27;20050;-79
2024/01/23 03:00:05;;;;;;;2.90;0.70;;;;;;;;;;10572715;27;20036;-79
2024/01/23 03:05:14;;;;;;;1.35;0.55;;;;;;;;;;10567567;27;20084;-80
2024/01/23 03:10:20;;;;;;;2.35;0.50;;;;;;;;;;10587869;27;20554;-82
2024/01/23 03:15:27;;;;;;;2.25;0.40;;;;;;;;;;10585478;27;20039;-80
2024/01/23 03:20:37;;;;;;;0.98;0.70;;;;;;;;;;10564930;27;20048;-81
2024/01/23 03:25:44;;;;;;;4.00;0.52;;;;;;;;;;10585515;27;20404;-80
2024/01/23 03:30:51;;;;;;;0.98;0.52;;;;;;;;;;10582418;27;22271;-80
2024/01/23 03:36:03;;;;;;;1.95;0.35;;;;;;;;;;10584041;27;20039;-81
2024/01/23 03:41:07;;;;;;;2.72;0.47;;;;;;;;;;10580290;27;20050;-80
2024/01/23 03:46:11;;;;;;;0.95;0.43;;;;;;;;;;10581347;27;20115;-80
2024/01/23 03:51:43;;;;;;;1.60;0.40;;;;;;;;;;10586970;27;20381;-79
2024/01/23 03:56:49;;;;;;;2.25;0.65;;;;;;;;;;10582809;27;20496;-81
2024/01/23 04:01:53;;;;;;;1.92;0.60;;;;;;;;;;10567877;27;20044;-81
2024/01/23 04:07:05;;;;;;;3.53;0.82;;;;;;;;;;10580967;27;20448;-81
2024/01/23 04:12:21;;;;;;;1.13;0.20;;;;;;;;;;10583582;27;20064;-82
2024/01/23 04:17:29;;;;;;;1.27;0.40;;;;;;;;;;10581033;27;20038;-80
2024/01/23 04:22:38;;;;;;;5.15;0.77;;;;;;;;;;10556538;27;20035;-81
2024/01/23 04:27:43;;;;;;;4.13;0.85;;;;;;;;;;10560131;27;20485;-81
2024/01/23 04:32:58;;;;;;;0.65;0.40;;;;;;;;;;10583444;27;20404;-81
2024/01/23 04:38:08;;;;;;;3.35;0.88;;;;;;;;;;10578305;27;20142;-81
2024/01/23 04:43:14;;;;;;;4.28;0.70;;;;;;;;;;10572898;27;20074;-81
2024/01/23 04:48:21;;;;;;;2.17;0.60;;;;;;;;;;10540732;27;20472;-80
2024/01/23 04:53:30;;;;;;;4.03;0.60;;;;;;;;;;10580278;27;20109;-80
2024/01/23 04:58:40;;;;;;;2.17;0.60;;;;;;;;;;10578168;27;20055;-79
2024/01/23 05:03:57;;;;;;;3.13;0.90;;;;;;;;;;10572266;27;20058;-79
2024/01/23 05:09:03;;;;;;;3.00;0.55;;;;;;;;;;10556364;27;20557;-80
2024/01/23 05:14:10;;;;;;;4.90;0.82;;;;;;;;;;10564521;27;20061;-81
2024/01/23 05:24:41;;;;;;;3.78;1.10;;;;;;;;;;10583335;27;20512;-81
2024/01/23 05:29:44;;;;;;;2.92;0.60;;;;;;;;;;10546038;27;21911;-80
2024/01/23 05:34:48;;;;;;;5.30;0.60;;;;;;;;;;10583093;27;20761;-80
2024/01/23 05:40:19;;;;;;;2.90;0.47;;;;;;;;;;10571869;27;20122;-81
2024/01/23 05:45:25;;;;;;;0.82;0.32;;;;;;;;;;10573276;27;20048;-80
2024/01/23 05:50:36;;;;;;;2.15;0.50;;;;;;;;;;10589390;27;20031;-79
2024/01/23 05:55:44;;;;;;;1.35;0.50;;;;;;;;;;10584428;27;20054;-79
2024/01/23 06:00:49;;;;;;;3.30;0.68;;;;;;;;;;10570738;27;20089;-81
2024/01/23 06:05:58;;;;;;;2.50;0.77;;;;;;;;;;10569660;27;20060;-81
2024/01/23 06:11:09;;;;;;;2.05;0.63;;;;;;;;;;10576111;27;20055;-81
2024/01/23 06:16:23;;;;;;;3.85;0.80;;;;;;;;;;10582276;27;20175;-79
2024/01/23 06:21:28;;;;;;;;;;;;;;;;;;10573484;27;20116;-79
2024/01/23 06:26:52;;;;;;;1.95;0.85;;;;;;;;;;10588338;27;19928;-80
2024/01/23 06:31:59;;;;;;;1.92;0.70;;;;;;;;;;10584703;27;20043;-79
2024/01/23 06:37:06;;;;;;;7.10;0.70;;;;;;;;;;10584799;27;20274;-81
2024/01/23 06:42:12;;;;;;;2.17;0.77;;;;;;;;;;10590233;27;20035;-81
2024/01/23 06:47:23;;;;;;;2.58;0.90;;;;;;;;;;10592573;27;20056;-81
2024/01/23 06:52:29;;;;;;;5.28;0.68;;;;;;;;;;10558543;27;20183;-81
2024/01/23 06:57:39;;;;;;;2.88;1.02;;;;;;;;;;10584440;27;20127;-80
2024/01/23 07:02:50;;;;;;;5.00;0.70;;;;;;;;;;10584763;27;20042;-81
2024/01/23 07:08:00;;;;;;;3.20;0.70;;;;;;;;;;10585853;27;21418;-80
2024/01/23 07:13:16;;;;;;;4.13;1.00;;;;;;;;;;10555140;27;20127;-80
2024/01/23 07:18:26;;;;;;;4.63;0.50;;;;;;;;;;10580825;27;20157;-81
2024/01/23 07:23:33;;;;;;;7.18;1.08;;;;;;;;;;10585781;27;20066;-81
2024/01/23 07:28:42;;;;;;;3.78;0.77;;;;;;;;;;10559140;27;20027;-81
2024/01/23 07:34:10;;;;;;;5.90;1.10;;;;;;;;;;10572398;27;20046;-80
2024/01/23 07:39:17;;;;;;;;;;;;;;;;;;10587227;27;20042;-81
2024/01/23 07:44:45;;;;;;;2.55;0.63;;;;;;;;;;10571856;27;20706;-81
2024/01/23 07:49:56;;;;;;;3.05;0.75;;;;;;;;;;10573963;27;20074;-81
2024/01/23 07:55:17;;;;;;;2.50;0.73;;;;;;;;;;10596949;27;20039;-81
2024/01/23 08:00:22;;;;;;;2.85;0.70;;;;;;;;;;10591940;27;20088;-81
2024/01/23 08:05:44;;;;;;;5.30;0.70;;;;;;;;;;10590827;27;20118;-83
2024/01/23 08:10:51;;;;;;;7.50;0.90;;;;;;;;;;10584255;27;20054;-81
2024/01/23 08:15:58;;;;;;;3.00;0.60;;;;;;;;;;10571912;27;20535;-80
2024/01/23 08:21:09;;;;;;;2.05;0.75;;;;;;;;;;10588798;27;20095;-80
2024/01/23 08:26:23;;;;;;;2.08;0.50;;;;;;;;;;10589781;27;20040;-80
2024/01/23 08:31:35;;;;;;;5.00;0.45;;;;;;;;;;10593111;27;20153;-80
2024/01/23 08:36:40;;;;;;;0.32;0.20;;;;;;;;;;10573113;27;20482;-80
2024/01/23 08:41:47;;;;;;;0.73;0.43;;;;;;;;;;10590229;27;20310;-79
2024/01/23 08:46:53;;;;;;;4.53;1.08;;;;;;;;;;10599162;27;20062;-80
2024/01/23 08:52:08;;;;;;;2.85;0.60;;;;;;;;;;10592823;27;20422;-82
2024/01/23 08:57:38;;;;;;;2.10;0.50;;;;;;;;;;10572466;27;20043;-81
2024/01/23 09:02:43;;;;;;;0.75;0.38;;;;;;;;;;10571502;27;20047;-82
2024/01/23 09:07:55;;;;;;;2.03;0.40;;;;;;;;;;10589273;27;20248;-81
2024/01/23 09:13:02;;;;;;;1.55;0.40;;;;;;;;;;10590326;27;20557;-80
2024/01/23 09:18:05;;;;;;;0.85;0.38;;;;;;;;;;10568888;27;20052;-79
2024/01/23 09:23:12;;;;;;;1.23;0.50;;;;;;;;;;10586573;27;20039;-80
2024/01/23 09:28:32;;;;;;;0.45;0.30;;;;;;;;;;10567647;27;20503;-79
2024/01/23 09:33:35;;;;;;;1.65;0.40;;;;;;;;;;10565048;27;20523;-81
2024/01/23 09:38:41;;;;;;;1.00;0.40;;;;;;;;;;10591147;27;20047;-79
2024/01/23 09:43:47;;;;;;;2.00;0.73;;;;;;;;;;10559438;27;20036;-82
2024/01/23 09:48:53;;;;;;;1.67;1.27;;;;;;;;;;10587629;27;20563;-80
2024/01/23 09:53:58;;;;;;;2.30;1.33;;;;;;;;;;10573916;27;20035;-80
2024/01/23 09:59:09;;;;;;;1.25;1.10;;;;;;;;;;10582133;27;20426;-81
2024/01/23 10:04:26;;;;;;;1.67;1.20;;;;;;;;;;10589091;27;20041;-81
2024/01/23 10:09:47;;;;;;;2.92;1.60;;;;;;;;;;10586043;27;20337;-82
2024/01/23 10:14:53;;;;;;;2.17;0.90;;;;;;;;;;10584056;27;20122;-84
2024/01/23 10:20:00;;;;;;;3.10;1.20;;;;;;;;;;10565270;27;20416;-83
2024/01/23 10:25:09;;;;;;;3.03;1.13;;;;;;;;;;10563202;27;20470;-81
2024/01/23 10:30:14;;;;;;;3.45;0.80;;;;;;;;;;10585940;27;20118;-83
2024/01/23 10:35:21;;;;;;;2.45;0.82;;;;;;;;;;10592852;27;20053;-85
2024/01/23 10:40:31;;;;;;;2.33;0.70;;;;;;;;;;10591285;27;20043;-84
2024/01/23 10:45:41;;;;;;;2.17;0.57;;;;;;;;;;10577654;27;20059;-82
2024/01/23 10:50:50;;;;;;;2.90;0.75;;;;;;;;;;10594934;27;20043;-81
2024/01/23 10:55:57;;;;;;;0.95;0.73;;;;;;;;;;10573487;27;20167;-82
2024/01/23 11:01:04;;;;;;;1.50;0.55;;;;;;;;;;10594712;27;20427;-83
2024/01/23 11:06:17;;;;;;;2.15;0.80;;;;;;;;;;10573089;27;20051;-83
2024/01/23 11:11:27;;;;;;;6.97;0.90;;;;;;;;;;10580766;27;20051;-81
2024/01/23 11:16:38;;;;;;;3.03;0.82;;;;;;;;;;10597152;27;20308;-81
2024/01/23 11:21:44;;;;;;;;;;;;;;;;;;10572711;27;20557;-83
2024/01/23 11:26:55;;;;;;;1.23;0.70;;;;;;;;;;10592601;27;19927;-83
2024/01/23 11:32:19;;;;;;;4.50;1.33;;;;;;;;;;10593082;27;20046;-82
2024/01/23 11:37:46;;;;;;;2.60;0.77;;;;;;;;;;10566408;27;20157;-84
2024/01/23 11:43:04;;;;;;;4.93;1.58;;;;;;;;;;10587004;27;20119;-83
2024/01/23 11:48:17;;;;;;;3.17;1.92;;;;;;;;;;10587054;27;20646;-83
2024/01/23 11:53:25;;;;;;;1.83;1.00;;;;;;;;;;10591339;27;20504;-86
2024/01/23 11:58:31;;;;;;;2.55;1.30;;;;;;;;;;10568087;27;20066;-86
2024/01/23 12:03:38;;;;;;;3.00;1.50;;;;;;;;;;10590334;27;20480;-86
2024/01/23 12:08:56;;;;;;;4.38;1.48;;;;;;;;;;10596353;27;20068;-86
2024/01/23 12:14:09;;;;;;;4.53;1.55;;;;;;;;;;10571875;27;20061;-87
2024/01/23 12:19:16;;;;;;;5.53;1.70;;;;;;;;;;10582236;27;20041;-87
2024/01/23 12:24:33;;;;;;;2.70;1.10;;;;;;;;;;10572305;27;20484;-86
2024/01/23 12:29:41;;;;;;;3.63;1.02;;;;;;;;;;10571541;27;20039;-85
2024/01/23 12:35:03;;;;;;;5.78;1.60;;;;;;;;;;10556766;27;20129;-86
2024/01/23 12:40:20;;;;;;;3.13;0.93;;;;;;;;;;10587594;27;20063;-86
2024/01/23 12:45:29;;;;;;;4.45;1.50;;;;;;;;;;10584595;27;20047;-85
2024/01/23 12:50:55;;;;;;;2.95;0.65;;;;;;;;;;10589458;27;20428;-87
2024/01/23 12:56:02;;;;;;;5.00;1.08;;;;;;;;;;10568110;27;20115;-87
2024/01/23 13:01:16;;;;;;;3.90;0.75;;;;;;;;;;10587529;27;20401;-85
2024/01/23 13:06:25;;;;;;;2.75;0.68;;;;;;;;;;10565652;27;20744;-85
2024/01/23 13:11:35;;;;;;;6.30;1.15;;;;;;;;;;10553907;27;20043;-85
2024/01/23 13:16:49;;;;;;;2.65;0.90;;;;;;;;;;10579193;27;20189;-84
2024/01/23 13:22:03;;;;;;;3.35;1.40;;;;;;;;;;10568294;27;20039;-84
2024/01/23 13:27:13;;;;;;;4.65;1.08;;;;;;;;;;10568293;27;20047;-84
2024/01/23 13:32:23;;;;;;;2.72;0.85;;;;;;;;;;10554529;27;20050;-85
2024/01/23 13:37:43;;;;;;;3.17;0.85;;;;;;;;;;10580994;27;20047;-85
2024/01/23 13:42:55;;;;;;;3.33;1.13;;;;;;;;;;10557488;27;20050;-85
2024/01/23 13:48:04;;;;;;;;;;;;;;;;;;10548953;27;20059;-84
2024/01/23 13:53:11;;;;;;;3.42;1.00;;;;;;;;;;10579879;27;19927;-84
2024/01/23 13:58:57;;;;;;;1.90;0.75;;;;;;;;;;10585945;27;20477;-84
2024/01/23 14:04:08;;;;;;;3.13;0.98;;;;;;;;;;10577737;27;20050;-84
2024/01/23 14:09:17;;;;;;;1.42;0.50;;;;;;;;;;10587176;27;20506;-84
2024/01/23 14:14:27;;;;;;;2.08;0.35;;;;;;;;;;10562954;27;20505;-83
2024/01/23 14:19:55;;;;;;;3.07;1.10;;;;;;;;;;10569432;27;20046;-82
2024/01/23 14:25:05;;;;;;;3.38;1.15;;;;;;;;;;10571284;27;20114;-83
2024/01/23 14:30:12;;;;;;;3.17;0.98;;;;;;;;;;10570974;27;20039;-82
2024/01/23 14:35:26;;;;;;;1.17;0.40;;;;;;;;;;10568749;27;20050;-85
2024/01/23 14:40:37;;;;;;;3.03;0.65;;;;;;;;;;10594930;27;20035;-85
2024/01/23 14:45:43;;;;;;;2.92;0.90;;;;;;;;;;10576340;27;20067;-85
2024/01/23 14:50:50;;;;;;;3.17;0.57;;;;;;;;;;10592044;27;20038;-85
2024/01/23 14:55:57;;;;;;;2.47;0.75;;;;;;;;;;10587413;27;20126;-83
2024/01/23 15:01:03;;;;;;;4.10;0.80;;;;;;;;;;10558541;27;20181;-84
2024/01/23 15:06:11;;;;;;;1.40;0.63;;;;;;;;;;10551176;27;20046;-83
2024/01/23 15:11:21;;;;;;;2.63;0.63;;;;;;;;;;10584670;27;20054;-84
2024/01/23 15:16:29;;;;;;;3.60;0.95;;;;;;;;;;10551163;27;20043;-83
2024/01/23 15:21:53;;;;;;;3.00;0.88;;;;;;;;;;10574687;27;20062;-84
2024/01/23 15:26:59;;;;;;;0.65;0.35;;;;;;;;;;10570330;27;20157;-83
2024/01/23 15:32:11;;;;;;;3.33;0.60;;;;;;;;;;10586361;27;20051;-84
2024/01/23 15:37:24;;;;;;;0.57;0.30;;;;;;;;;;10584891;27;20058;-83
2024/01/23 15:42:28;;;;;;;2.70;0.90;;;;;;;;;;10564736;27;20039;-82
2024/01/23 15:47:33;;;;;;;1.92;0.45;;;;;;;;;;10586841;27;20043;-82
2024/01/23 15:52:44;;;;;;;1.70;0.68;;;;;;;;;;10572072;27;20043;-83
2024/01/23 15:57:54;;;;;;;4.25;1.00;;;;;;;;;;10579676;27;20046;-81
2024/01/23 16:03:02;;;;;;;1.13;1.02;;;;;;;;;;10550187;27;20035;-82
2024/01/23 16:08:10;;;;;;;4.05;1.40;;;;;;;;;;10586650;27;20036;-81
2024/01/23 16:13:28;;;;;;;2.58;0.90;;;;;;;;;;10563666;27;20039;-82
2024/01/23 16:18:40;;;;;;;1.42;0.70;;;;;;;;;;10581085;27;20708;-82
2024/01/23 16:23:56;;;;;;;0.55;0.30;;;;;;;;;;10566754;27;20489;-81
2024/01/23 16:29:01;;;;;;;2.50;0.95;;;;;;;;;;10568396;27;20074;-82
2024/01/23 16:34:11;;;;;;;2.70;0.82;;;;;;;;;;10549194;27;20066;-80
2024/01/23 16:39:19;;;;;;;3.95;1.05;;;;;;;;;;10568439;27;20451;-81
2024/01/23 16:44:25;;;;;;;7.53;1.05;;;;;;;;;;10583831;27;20122;-79
2024/01/23 16:49:37;;;;;;;2.90;1.17;;;;;;;;;;10551127;27;20181;-80
2024/01/23 16:54:57;;;;;;;5.00;1.30;;;;;;;;;;10587156;27;20408;-80
2024/01/23 17:00:06;;;;;;;2.35;1.15;;;;;;;;;;10589067;27;22191;-80
2024/01/23 17:05:18;;;;;;;2.97;0.80;;;;;;;;;;10586958;27;20043;-81
2024/01/23 17:10:37;;;;;;;2.95;1.02;;;;;;;;;;10570193;27;20468;-80
2024/01/23 17:15:54;;;;;;;3.13;0.75;;;;;;;;;;10584618;27;20580;-82
2024/01/23 17:21:01;;;;;;;3.70;1.15;;;;;;;;;;10583837;27;20052;-81
2024/01/23 17:26:17;;;;;;;6.03;1.45;;;;;;;;;;10583365;27;20047;-81
2024/01/23 17:31:23;;;;;;;9.10;1.23;;;;;;;;;;10591587;27;20043;-80
2024/01/23 17:36:28;;;;;;;2.55;0.93;;;;;;;;;;10592609;27;20632;-80
2024/01/23 17:41:36;;;;;;;3.28;0.73;;;;;;;;;;10588649;27;20051;-80
2024/01/23 17:46:46;;;;;;;6.45;1.40;;;;;;;;;;10605329;27;20039;-80
2024/01/23 17:51:57;;;;;;;4.65;1.17;;;;;;;;;;10615764;27;20429;-80
2024/01/23 17:57:14;;;;;;;5.55;1.50;;;;;;;;;;10599742;27;20060;-81
2024/01/23 18:02:23;;;;;;;6.05;1.35;;;;;;;;;;10581920;27;20749;-80
2024/01/23 18:07:30;;;;;;;5.60;1.45;;;;;;;;;;10591159;27;20732;-80
2024/01/23 18:12:43;;;;;;;8.25;1.40;;;;;;;;;;10590484;27;20043;-80
2024/01/23 18:17:49;;;;;;;7.13;1.17;;;;;;;;;;10550741;27;20175;-81
2024/01/23 18:22:59;;;;;;;5.07;1.42;;;;;;;;;;10591204;27;20047;-81
2024/01/23 18:28:18;;;;;;;4.18;1.02;;;;;;;;;;10593219;27;20047;-80
2024/01/23 18:33:28;;;;;;;5.65;1.30;;;;;;;;;;10588630;27;20514;-81
2024/01/23 18:38:39;;;;;;;3.25;1.00;;;;;;;;;;10574948;27;20528;-81
2024/01/23 18:44:05;;;;;;;6.55;1.38;;;;;;;;;;10598895;27;20561;-82
2024/01/23 18:49:17;;;;;;;3.60;1.20;;;;;;;;;;10592515;27;20704;-82
2024/01/23 18:54:23;;;;;;;3.30;1.13;;;;;;;;;;10598182;27;20043;-83
2024/01/23 18:59:28;;;;;;;4.60;1.85;;;;;;;;;;10588057;27;20069;-83
2024/01/23 19:04:36;;;;;;;6.28;1.65;;;;;;;;;;10582817;27;20051;-84
2024/01/23 19:09:43;;;;;;;6.05;1.08;;;;;;;;;;10585476;27;20063;-81
2024/01/23 19:20:15;;;;;;;6.53;1.70;;;;;;;;;;10569461;27;20056;-80
2024/01/23 19:25:21;;;;;;;4.18;1.13;;;;;;;;;;10554620;27;20202;-80
2024/01/23 19:30:47;;;;;;;4.55;1.08;;;;;;;;;;10572361;27;20051;-83
2024/01/23 19:36:09;;;;;;;6.70;1.50;;;;;;;;;;10568487;27;20492;-80
2024/01/23 19:41:15;;;;;;;4.63;1.30;;;;;;;;;;10589743;27;20130;-81
2024/01/23 19:46:21;;;;;;;6.05;1.50;;;;;;;;;;10568350;27;20050;-81
2024/01/23 19:51:27;;;;;;;5.85;1.27;;;;;;;;;;10570261;27;20043;-80
2024/01/23 19:56:39;;;;;;;5.32;0.88;;;;;;;;;;10585614;27;20298;-81
2024/01/23 20:01:49;;;;;;;5.60;1.20;;;;;;;;;;10595244;27;20055;-80
2024/01/23 20:06:58;;;;;;;7.78;1.85;;;;;;;;;;10591206;27;20054;-82
2024/01/23 20:12:03;;;;;;;4.45;1.42;;;;;;;;;;10610637;27;20100;-81
2024/01/23 20:17:08;;;;;;;5.20;1.38;;;;;;;;;;10601556;27;20054;-80
2024/01/23 20:22:18;;;;;;;4.30;1.10;;;;;;;;;;10605383;27;20145;-80
2024/01/23 20:27:24;;;;;;;2.95;0.82;;;;;;;;;;10582533;27;20046;-81
2024/01/23 20:32:33;;;;;;;2.67;1.00;;;;;;;;;;10609699;27;20075;-80
2024/01/23 20:37:47;;;;;;;3.03;1.10;;;;;;;;;;10593949;27;20349;-81
2024/01/23 20:42:52;;;;;;;3.00;0.52;;;;;;;;;;10591006;27;20075;-81
2024/01/23 20:47:56;;;;;;;3.28;0.88;;;;;;;;;;10601561;27;20036;-81
2024/01/23 20:53:06;;;;;;;4.65;0.82;;;;;;;;;;10604133;27;20053;-80
2024/01/23 20:58:18;;;;;;;1.25;0.60;;;;;;;;;;10587175;27;20488;-80
2024/01/23 21:03:28;;;;;;;4.10;0.88;;;;;;;;;;10604916;27;20382;-80
2024/01/23 21:08:40;;;;;;;3.40;0.55;;;;;;;;;;10569391;27;20040;-80
2024/01/23 21:13:50;;;;;;;2.72;0.73;;;;;;;;;;10604424;27;20581;-80
2024/01/23 21:18:55;;;;;;;0.88;0.70;;;;;;;;;;10584551;27;20055;-79
2024/01/23 21:24:10;;;;;;;1.63;0.60;;;;;;;;;;10585739;27;20043;-80
2024/01/23 21:29:20;;;;;;;0.93;0.70;;;;;;;;;;10587830;27;20043;-79
2024/01/23 21:34:23;;;;;;;0.55;0.43;;;;;;;;;;10607864;27;20043;-80
2024/01/23 21:39:51;;;;;;;1.27;0.60;;;;;;;;;;10592206;27;22439;-81
2024/01/23 21:45:22;;;;;;;1.43;0.60;;;;;;;;;;10579915;27;20384;-80
2024/01/23 21:50:41;;;;;;;4.55;0.73;;;;;;;;;;10564510;27;20043;-81
2024/01/23 21:55:51;;;;;;;2.50;0.40;;;;;;;;;;10585056;27;20126;-80
2024/01/23 22:01:00;;;;;;;1.85;0.50;;;;;;;;;;10564906;27;20182;-80
2024/01/23 22:06:09;;;;;;;1.15;0.60;;;;;;;;;;10581071;27;20035;-79
2024/01/23 22:11:15;;;;;;;1.25;0.55;;;;;;;;;;10582892;27;20100;-78
2024/01/23 22:16:20;;;;;;;0.83;0.40;;;;;;;;;;10557087;27;20492;-79
2024/01/23 22:21:32;;;;;;;1.55;0.50;;;;;;;;;;10577627;27;20078;-80
2024/01/23 22:26:47;;;;;;;1.33;0.60;;;;;;;;;;10583161;27;20050;-81
2024/01/23 22:32:22;;;;;;;0.73;0.50;;;;;;;;;;10584062;27;20609;-79
2024/01/23 22:37:32;;;;;;;0.80;0.43;;;;;;;;;;10565987;27;20032;-80
2024/01/23 22:42:43;;;;;;;0.30;0.30;;;;;;;;;;10584574;27;20496;-79
2024/01/23 22:47:57;;;;;;;1.77;0.80;;;;;;;;;;10584096;27;20093;-80
2024/01/23 22:53:07;;;;;;;1.80;0.52;;;;;;;;;;10587769;27;20051;-80
2024/01/23 22:58:13;;;;;;;0.52;0.30;;;;;;;;;;10591588;27;20485;-79
2024/01/23 23:03:25;;;;;;;1.13;0.50;;;;;;;;;;10551162;27;20043;-80
2024/01/23 23:08:28;;;;;;;1.20;0.57;;;;;;;;;;10571906;27;20484;-80
2024/01/23 23:13:37;;;;;;;2.75;0.47;;;;;;;;;;10586022;27;20107;-80
2024/01/23 23:18:48;;;;;;;0.28;0.25;;;;;;;;;;10582912;27;20592;-79
2024/01/23 23:23:57;;;;;;;0.95;0.30;;;;;;;;;;10572023;27;20043;-80
2024/01/23 23:29:01;;;;;;;0.35;0.35;;;;;;;;;;10586626;27;20409;-80
2024/01/23 23:34:07;;;;;;;0.43;0.43;;;;;;;;;;10569912;27;20047;-80
2024/01/23 23:39:21;;;;;;;1.25;0.30;;;;;;;;;;10587771;27;20039;-80
2024/01/23 23:44:40;;;;;;;1.27;0.90;;;;;;;;;;10576972;27;20058;-80
2024/01/23 23:49:45;;;;;;;1.58;0.10;;;;;;;;;;10552820;27;20047;-80
2024/01/23 23:54:50;;;;;;;0.85;0.47;;;;;;;;;;10569635;27;20568;-79
2024/01/23 23:59:54;;;;;;;0.57;0.20;;;;;;;;;;10582099;27;20055;-81
